sensor_id;sensor_type;location;lat;lon;timestamp;temperature;humidity
14357;DHT22;7262;48.764;9.166;2023-04-03T00:00:53;4.80;99.90
14357;DHT22;7262;48.764;9.166;2023-04-03T00:03:20;4.90;99.90
14357;DHT22;7262;48.764;9.166;2023-04-03T00:05:47;4.90;99.90
14357;DHT22;7262;48.764;9.166;2023-04-03T00:08:15;4.80;99.90
14357;DHT22;7262;48.764;9.166;2023-04-03T00:10:41;4.80;99.90
14357;DHT22;7262;48.764;9.166;2023-04-03T00:13:10;4.80;99.90
14357;DHT22;7262;48.764;9.166;2023-04-03T00:15:37;4.70;99.90
14357;DHT22;7262;48.764;9.166;2023-04-03T00:18:04;4.70;99.90
14357;DHT22;7262;48.764;9.166;2023-04-03T00:20:31;4.70;99.90
14357;DHT22;7262;48.764;9.166;2023-04-03T00:22:58;4.70;99.90
14357;DHT22;7262;48.764;9.166;2023-04-03T00:25:25;4.60;99.90
14357;DHT22;7262;48.764;9.166;2023-04-03T00:27:52;4.60;99.90
14357;DHT22;7262;48.764;9.166;2023-04-03T00:30:21;4.60;99.90
14357;DHT22;7262;48.764;9.166;2023-04-03T00:32:48;4.60;99.90
14357;DHT22;7262;48.764;9.166;2023-04-03T00:35:17;4.70;99.90
14357;DHT22;7262;48.764;9.166;2023-04-03T00:37:44;4.60;99.90
14357;DHT22;7262;48.764;9.166;2023-04-03T00:40:12;4.70;99.90
14357;DHT22;7262;48.764;9.166;2023-04-03T00:42:40;4.70;99.90
14357;DHT22;7262;48.764;9.166;2023-04-03T00:47:54;4.70;99.90
14357;DHT22;7262;48.764;9.166;2023-04-03T00:50:21;4.70;99.90
14357;DHT22;7262;48.764;9.166;2023-04-03T00:52:48;4.70;99.90
14357;DHT22;7262;48.764;9.166;2023-04-03T00:55:15;4.70;99.90
14357;DHT22;7262;48.764;9.166;2023-04-03T00:57:42;4.70;99.90
14357;DHT22;7262;48.764;9.166;2023-04-03T01:00:12;4.70;99.90
14357;DHT22;7262;48.764;9.166;2023-04-03T01:02:39;4.70;99.90
14357;DHT22;7262;48.764;9.166;2023-04-03T01:05:08;4.70;99.90
14357;DHT22;7262;48.764;9.166;2023-04-03T01:07:35;4.60;99.90
14357;DHT22;7262;48.764;9.166;2023-04-03T01:10:03;4.60;99.90
14357;DHT22;7262;48.764;9.166;2023-04-03T01:12:31;4.50;99.90
14357;DHT22;7262;48.764;9.166;2023-04-03T01:14:59;4.50;99.90
14357;DHT22;7262;48.764;9.166;2023-04-03T01:17:27;4.50;99.90
14357;DHT22;7262;48.764;9.166;2023-04-03T01:19:58;4.50;99.90
14357;DHT22;7262;48.764;9.166;2023-04-03T01:22:30;4.50;99.90
14357;DHT22;7262;48.764;9.166;2023-04-03T01:25:00;4.50;99.90
14357;DHT22;7262;48.764;9.166;2023-04-03T01:27:27;4.50;99.90
14357;DHT22;7262;48.764;9.166;2023-04-03T01:29:54;4.50;99.90
14357;DHT22;7262;48.764;9.166;2023-04-03T01:32:23;4.50;99.90
14357;DHT22;7262;48.764;9.166;2023-04-03T01:34:49;4.50;99.90
14357;DHT22;7262;48.764;9.166;2023-04-03T01:37:16;4.50;99.90
14357;DHT22;7262;48.764;9.166;2023-04-03T01:39:44;4.50;99.90
14357;DHT22;7262;48.764;9.166;2023-04-03T01:42:11;4.50;99.90
14357;DHT22;7262;48.764;9.166;2023-04-03T01:44:38;4.50;99.90
14357;DHT22;7262;48.764;9.166;2023-04-03T01:47:05;4.50;99.90
14357;DHT22;7262;48.764;9.166;2023-04-03T01:49:33;4.40;99.90
14357;DHT22;7262;48.764;9.166;2023-04-03T01:52:00;4.40;99.90
14357;DHT22;7262;48.764;9.166;2023-04-03T01:54:27;4.40;99.90
14357;DHT22;7262;48.764;9.166;2023-04-03T01:56:53;4.40;99.90
14357;DHT22;7262;48.764;9.166;2023-04-03T01:59:20;4.50;99.90
14357;DHT22;7262;48.764;9.166;2023-04-03T02:01:47;4.50;99.90
14357;DHT22;7262;48.764;9.166;2023-04-03T02:04:14;4.40;99.90
14357;DHT22;7262;48.764;9.166;2023-04-03T02:06:42;4.40;99.90
14357;DHT22;7262;48.764;9.166;2023-04-03T02:09:09;4.40;99.90
14357;DHT22;7262;48.764;9.166;2023-04-03T02:11:36;4.30;99.90
14357;DHT22;7262;48.764;9.166;2023-04-03T02:14:02;4.40;99.90
14357;DHT22;7262;48.764;9.166;2023-04-03T02:16:29;4.40;99.90
14357;DHT22;7262;48.764;9.166;2023-04-03T02:18:56;4.40;99.90
14357;DHT22;7262;48.764;9.166;2023-04-03T02:21:24;4.40;99.90
14357;DHT22;7262;48.764;9.166;2023-04-03T02:23:52;4.40;99.90
14357;DHT22;7262;48.764;9.166;2023-04-03T02:26:19;4.40;99.90
14357;DHT22;7262;48.764;9.166;2023-04-03T02:28:46;4.50;99.90
14357;DHT22;7262;48.764;9.166;2023-04-03T02:31:13;4.50;99.90
14357;DHT22;7262;48.764;9.166;2023-04-03T02:33:40;4.50;99.90
14357;DHT22;7262;48.764;9.166;2023-04-03T02:36:07;4.50;99.90
14357;DHT22;7262;48.764;9.166;2023-04-03T02:38:36;4.60;99.90
14357;DHT22;7262;48.764;9.166;2023-04-03T02:41:06;4.60;99.90
14357;DHT22;7262;48.764;9.166;2023-04-03T02:43:33;4.60;99.90
14357;DHT22;7262;48.764;9.166;2023-04-03T02:46:00;4.60;99.90
14357;DHT22;7262;48.764;9.166;2023-04-03T02:48:27;4.60;99.90
14357;DHT22;7262;48.764;9.166;2023-04-03T02:50:54;4.60;99.90
14357;DHT22;7262;48.764;9.166;2023-04-03T02:53:21;4.60;99.90
14357;DHT22;7262;48.764;9.166;2023-04-03T02:55:47;4.60;99.90
14357;DHT22;7262;48.764;9.166;2023-04-03T02:58:16;4.60;99.90
14357;DHT22;7262;48.764;9.166;2023-04-03T03:00:43;4.60;99.90
14357;DHT22;7262;48.764;9.166;2023-04-03T03:03:09;4.50;99.90
14357;DHT22;7262;48.764;9.166;2023-04-03T03:05:36;4.50;99.90
14357;DHT22;7262;48.764;9.166;2023-04-03T03:08:03;4.50;99.90
14357;DHT22;7262;48.764;9.166;2023-04-03T03:10:31;4.50;99.90
14357;DHT22;7262;48.764;9.166;2023-04-03T03:12:57;4.50;99.90
14357;DHT22;7262;48.764;9.166;2023-04-03T03:15:26;4.50;99.90
14357;DHT22;7262;48.764;9.166;2023-04-03T03:17:52;4.50;99.90
14357;DHT22;7262;48.764;9.166;2023-04-03T03:20:19;4.50;99.90
14357;DHT22;7262;48.764;9.166;2023-04-03T03:22:46;4.50;99.90
14357;DHT22;7262;48.764;9.166;2023-04-03T03:25:13;4.50;99.90
14357;DHT22;7262;48.764;9.166;2023-04-03T03:27:40;4.50;99.90
14357;DHT22;7262;48.764;9.166;2023-04-03T03:30:07;4.50;99.90
14357;DHT22;7262;48.764;9.166;2023-04-03T03:32:35;4.50;99.90
14357;DHT22;7262;48.764;9.166;2023-04-03T03:35:02;4.50;99.90
14357;DHT22;7262;48.764;9.166;2023-04-03T03:37:29;4.50;99.90
14357;DHT22;7262;48.764;9.166;2023-04-03T03:39:56;4.40;99.90
14357;DHT22;7262;48.764;9.166;2023-04-03T03:42:23;4.60;99.90
14357;DHT22;7262;48.764;9.166;2023-04-03T03:44:49;4.50;99.90
14357;DHT22;7262;48.764;9.166;2023-04-03T03:47:17;4.50;99.90
14357;DHT22;7262;48.764;9.166;2023-04-03T03:49:45;4.50;99.90
14357;DHT22;7262;48.764;9.166;2023-04-03T03:52:12;4.40;99.90
14357;DHT22;7262;48.764;9.166;2023-04-03T03:54:39;4.50;99.90
14357;DHT22;7262;48.764;9.166;2023-04-03T03:57:06;4.50;99.90
14357;DHT22;7262;48.764;9.166;2023-04-03T03:59:32;4.50;99.90
14357;DHT22;7262;48.764;9.166;2023-04-03T04:02:00;4.40;99.90
14357;DHT22;7262;48.764;9.166;2023-04-03T04:04:26;4.40;99.90
14357;DHT22;7262;48.764;9.166;2023-04-03T04:06:54;4.50;99.90
14357;DHT22;7262;48.764;9.166;2023-04-03T04:09:21;4.40;99.90
14357;DHT22;7262;48.764;9.166;2023-04-03T04:11:48;4.40;99.90
14357;DHT22;7262;48.764;9.166;2023-04-03T04:14:15;4.50;99.90
14357;DHT22;7262;48.764;9.166;2023-04-03T04:16:43;4.50;99.90
14357;DHT22;7262;48.764;9.166;2023-04-03T04:19:09;4.50;99.90
14357;DHT22;7262;48.764;9.166;2023-04-03T04:21:36;4.50;99.90
14357;DHT22;7262;48.764;9.166;2023-04-03T04:24:05;4.60;99.90
14357;DHT22;7262;48.764;9.166;2023-04-03T04:26:33;4.50;99.90
14357;DHT22;7262;48.764;9.166;2023-04-03T04:29:00;4.60;99.90
14357;DHT22;7262;48.764;9.166;2023-04-03T04:31:27;4.60;99.90
14357;DHT22;7262;48.764;9.166;2023-04-03T04:33:53;4.70;99.90
14357;DHT22;7262;48.764;9.166;2023-04-03T04:36:20;4.70;99.90
14357;DHT22;7262;48.764;9.166;2023-04-03T04:38:48;4.70;99.90
14357;DHT22;7262;48.764;9.166;2023-04-03T04:41:19;4.70;99.90
14357;DHT22;7262;48.764;9.166;2023-04-03T04:43:47;4.80;99.90
14357;DHT22;7262;48.764;9.166;2023-04-03T04:46:14;4.70;99.90
14357;DHT22;7262;48.764;9.166;2023-04-03T04:48:49;4.80;99.90
14357;DHT22;7262;48.764;9.166;2023-04-03T04:51:16;4.80;99.90
14357;DHT22;7262;48.764;9.166;2023-04-03T04:53:42;4.80;99.90
14357;DHT22;7262;48.764;9.166;2023-04-03T04:56:09;4.80;99.90
14357;DHT22;7262;48.764;9.166;2023-04-03T04:58:42;4.70;99.90
14357;DHT22;7262;48.764;9.166;2023-04-03T05:01:09;4.60;99.90
14357;DHT22;7262;48.764;9.166;2023-04-03T05:03:36;4.60;99.90
14357;DHT22;7262;48.764;9.166;2023-04-03T05:06:03;4.70;99.90
14357;DHT22;7262;48.764;9.166;2023-04-03T05:08:31;4.70;99.90
14357;DHT22;7262;48.764;9.166;2023-04-03T05:10:57;4.70;99.90
14357;DHT22;7262;48.764;9.166;2023-04-03T05:13:24;4.70;99.90
14357;DHT22;7262;48.764;9.166;2023-04-03T05:16:00;4.70;99.90
14357;DHT22;7262;48.764;9.166;2023-04-03T05:18:26;4.80;99.90
14357;DHT22;7262;48.764;9.166;2023-04-03T05:20:53;4.80;99.90
14357;DHT22;7262;48.764;9.166;2023-04-03T05:23:20;4.80;99.90
14357;DHT22;7262;48.764;9.166;2023-04-03T05:25:46;4.90;99.90
14357;DHT22;7262;48.764;9.166;2023-04-03T05:28:14;4.90;99.90
14357;DHT22;7262;48.764;9.166;2023-04-03T05:30:41;4.90;99.90
14357;DHT22;7262;48.764;9.166;2023-04-03T05:33:09;4.90;99.90
14357;DHT22;7262;48.764;9.166;2023-04-03T05:35:36;5.00;99.90
14357;DHT22;7262;48.764;9.166;2023-04-03T05:38:04;4.90;99.90
14357;DHT22;7262;48.764;9.166;2023-04-03T05:40:31;5.00;99.90
14357;DHT22;7262;48.764;9.166;2023-04-03T05:42:58;4.90;99.90
14357;DHT22;7262;48.764;9.166;2023-04-03T05:45:25;4.90;99.90
14357;DHT22;7262;48.764;9.166;2023-04-03T05:47:52;4.90;99.90
14357;DHT22;7262;48.764;9.166;2023-04-03T05:50:22;5.00;99.90
14357;DHT22;7262;48.764;9.166;2023-04-03T05:52:50;5.10;99.90
14357;DHT22;7262;48.764;9.166;2023-04-03T05:55:23;5.00;99.90
14357;DHT22;7262;48.764;9.166;2023-04-03T05:57:50;5.10;99.90
14357;DHT22;7262;48.764;9.166;2023-04-03T06:00:19;5.10;99.90
14357;DHT22;7262;48.764;9.166;2023-04-03T06:02:46;5.20;99.90
14357;DHT22;7262;48.764;9.166;2023-04-03T06:05:13;5.30;99.90
14357;DHT22;7262;48.764;9.166;2023-04-03T06:07:41;5.60;99.90
14357;DHT22;7262;48.764;9.166;2023-04-03T06:10:10;5.70;99.90
14357;DHT22;7262;48.764;9.166;2023-04-03T06:12:37;5.70;99.90
14357;DHT22;7262;48.764;9.166;2023-04-03T06:15:05;5.90;99.90
14357;DHT22;7262;48.764;9.166;2023-04-03T06:17:33;5.90;99.90
14357;DHT22;7262;48.764;9.166;2023-04-03T06:20:00;5.80;99.90
14357;DHT22;7262;48.764;9.166;2023-04-03T06:22:28;5.90;99.90
14357;DHT22;7262;48.764;9.166;2023-04-03T06:24:58;6.00;99.90
14357;DHT22;7262;48.764;9.166;2023-04-03T06:27:25;5.60;99.90
14357;DHT22;7262;48.764;9.166;2023-04-03T06:29:51;5.40;99.90
14357;DHT22;7262;48.764;9.166;2023-04-03T06:32:19;5.40;99.90
14357;DHT22;7262;48.764;9.166;2023-04-03T06:34:45;5.50;99.90
14357;DHT22;7262;48.764;9.166;2023-04-03T06:37:14;5.60;99.90
14357;DHT22;7262;48.764;9.166;2023-04-03T06:39:42;5.50;99.90
14357;DHT22;7262;48.764;9.166;2023-04-03T06:42:12;5.50;99.90
14357;DHT22;7262;48.764;9.166;2023-04-03T06:44:39;5.60;99.90
14357;DHT22;7262;48.764;9.166;2023-04-03T06:47:06;5.50;99.90
14357;DHT22;7262;48.764;9.166;2023-04-03T06:49:33;5.30;99.90
14357;DHT22;7262;48.764;9.166;2023-04-03T06:52:02;5.40;99.90
14357;DHT22;7262;48.764;9.166;2023-04-03T06:54:37;5.40;99.90
14357;DHT22;7262;48.764;9.166;2023-04-03T06:57:04;5.30;99.90
14357;DHT22;7262;48.764;9.166;2023-04-03T06:59:32;5.50;99.90
14357;DHT22;7262;48.764;9.166;2023-04-03T07:01:59;5.50;99.90
14357;DHT22;7262;48.764;9.166;2023-04-03T07:04:26;5.60;99.90
14357;DHT22;7262;48.764;9.166;2023-04-03T07:06:53;5.50;99.90
14357;DHT22;7262;48.764;9.166;2023-04-03T07:09:20;5.50;99.90
14357;DHT22;7262;48.764;9.166;2023-04-03T07:11:47;5.50;99.90
14357;DHT22;7262;48.764;9.166;2023-04-03T07:14:13;5.50;99.90
14357;DHT22;7262;48.764;9.166;2023-04-03T07:16:42;5.50;99.90
14357;DHT22;7262;48.764;9.166;2023-04-03T07:19:08;5.40;99.90
14357;DHT22;7262;48.764;9.166;2023-04-03T07:21:35;5.50;99.90
14357;DHT22;7262;48.764;9.166;2023-04-03T07:24:02;5.50;99.90
14357;DHT22;7262;48.764;9.166;2023-04-03T07:26:28;5.50;99.90
14357;DHT22;7262;48.764;9.166;2023-04-03T07:28:56;5.80;99.90
14357;DHT22;7262;48.764;9.166;2023-04-03T07:31:23;5.90;99.90
14357;DHT22;7262;48.764;9.166;2023-04-03T07:33:52;6.00;99.90
14357;DHT22;7262;48.764;9.166;2023-04-03T07:36:19;6.20;99.90
14357;DHT22;7262;48.764;9.166;2023-04-03T07:38:46;6.00;99.90
14357;DHT22;7262;48.764;9.166;2023-04-03T07:41:13;6.00;99.90
14357;DHT22;7262;48.764;9.166;2023-04-03T07:43:42;6.20;99.90
14357;DHT22;7262;48.764;9.166;2023-04-03T07:46:09;6.50;99.90
14357;DHT22;7262;48.764;9.166;2023-04-03T07:48:36;6.30;99.90
14357;DHT22;7262;48.764;9.166;2023-04-03T07:51:06;6.20;99.90
14357;DHT22;7262;48.764;9.166;2023-04-03T07:53:34;6.30;99.90
14357;DHT22;7262;48.764;9.166;2023-04-03T07:56:01;6.30;99.90
14357;DHT22;7262;48.764;9.166;2023-04-03T07:58:28;6.50;99.90
14357;DHT22;7262;48.764;9.166;2023-04-03T08:00:55;6.60;99.90
14357;DHT22;7262;48.764;9.166;2023-04-03T08:03:22;6.70;99.90
14357;DHT22;7262;48.764;9.166;2023-04-03T08:05:49;6.30;99.90
14357;DHT22;7262;48.764;9.166;2023-04-03T08:08:18;6.40;99.90
14357;DHT22;7262;48.764;9.166;2023-04-03T08:10:47;6.60;99.90
14357;DHT22;7262;48.764;9.166;2023-04-03T08:13:14;6.90;99.90
14357;DHT22;7262;48.764;9.166;2023-04-03T08:15:42;6.90;99.90
14357;DHT22;7262;48.764;9.166;2023-04-03T08:18:09;6.90;99.90
14357;DHT22;7262;48.764;9.166;2023-04-03T08:20:38;6.70;99.90
14357;DHT22;7262;48.764;9.166;2023-04-03T08:23:05;6.70;99.90
14357;DHT22;7262;48.764;9.166;2023-04-03T08:25:34;6.90;99.90
14357;DHT22;7262;48.764;9.166;2023-04-03T08:28:01;7.00;99.90
14357;DHT22;7262;48.764;9.166;2023-04-03T08:30:28;7.10;99.90
14357;DHT22;7262;48.764;9.166;2023-04-03T08:32:55;6.90;99.90
14357;DHT22;7262;48.764;9.166;2023-04-03T08:35:22;6.80;99.90
14357;DHT22;7262;48.764;9.166;2023-04-03T08:37:49;6.70;99.90
14357;DHT22;7262;48.764;9.166;2023-04-03T08:40:16;6.70;99.90
14357;DHT22;7262;48.764;9.166;2023-04-03T08:42:51;6.60;99.90
14357;DHT22;7262;48.764;9.166;2023-04-03T08:45:20;6.70;99.90
14357;DHT22;7262;48.764;9.166;2023-04-03T08:47:49;6.60;99.90
14357;DHT22;7262;48.764;9.166;2023-04-03T08:50:19;6.70;99.90
14357;DHT22;7262;48.764;9.166;2023-04-03T08:52:47;6.50;99.90
14357;DHT22;7262;48.764;9.166;2023-04-03T08:55:20;6.40;99.90
14357;DHT22;7262;48.764;9.166;2023-04-03T08:57:50;6.70;99.90
14357;DHT22;7262;48.764;9.166;2023-04-03T09:00:20;6.60;99.90
14357;DHT22;7262;48.764;9.166;2023-04-03T09:02:48;7.00;99.90
14357;DHT22;7262;48.764;9.166;2023-04-03T09:05:16;7.30;99.90
14357;DHT22;7262;48.764;9.166;2023-04-03T09:07:44;7.20;99.90
14357;DHT22;7262;48.764;9.166;2023-04-03T09:10:13;7.20;99.90
14357;DHT22;7262;48.764;9.166;2023-04-03T09:12:41;7.10;99.90
14357;DHT22;7262;48.764;9.166;2023-04-03T09:15:17;7.20;99.90
14357;DHT22;7262;48.764;9.166;2023-04-03T09:17:47;7.20;99.90
14357;DHT22;7262;48.764;9.166;2023-04-03T09:20:19;7.30;99.90
14357;DHT22;7262;48.764;9.166;2023-04-03T09:22:49;7.70;99.90
14357;DHT22;7262;48.764;9.166;2023-04-03T09:25:18;8.00;99.90
14357;DHT22;7262;48.764;9.166;2023-04-03T09:27:46;8.10;99.90
14357;DHT22;7262;48.764;9.166;2023-04-03T09:30:17;8.00;99.90
14357;DHT22;7262;48.764;9.166;2023-04-03T09:32:47;7.50;99.90
14357;DHT22;7262;48.764;9.166;2023-04-03T09:35:16;7.30;99.90
14357;DHT22;7262;48.764;9.166;2023-04-03T09:37:44;7.40;99.90
14357;DHT22;7262;48.764;9.166;2023-04-03T09:40:28;7.60;99.90
14357;DHT22;7262;48.764;9.166;2023-04-03T09:42:56;7.50;99.90
14357;DHT22;7262;48.764;9.166;2023-04-03T09:45:25;7.40;99.90
14357;DHT22;7262;48.764;9.166;2023-04-03T09:48:03;7.50;99.90
14357;DHT22;7262;48.764;9.166;2023-04-03T09:50:32;7.60;99.90
14357;DHT22;7262;48.764;9.166;2023-04-03T09:53:04;7.60;99.90
14357;DHT22;7262;48.764;9.166;2023-04-03T09:55:41;7.50;99.90
14357;DHT22;7262;48.764;9.166;2023-04-03T09:58:22;7.60;99.90
14357;DHT22;7262;48.764;9.166;2023-04-03T10:00:55;7.30;99.90
14357;DHT22;7262;48.764;9.166;2023-04-03T10:03:23;7.00;99.90
14357;DHT22;7262;48.764;9.166;2023-04-03T10:05:52;7.00;99.90
14357;DHT22;7262;48.764;9.166;2023-04-03T10:08:22;7.10;99.90
14357;DHT22;7262;48.764;9.166;2023-04-03T10:11:05;7.00;99.90
14357;DHT22;7262;48.764;9.166;2023-04-03T10:13:32;7.00;99.90
14357;DHT22;7262;48.764;9.166;2023-04-03T10:16:01;6.80;99.90
14357;DHT22;7262;48.764;9.166;2023-04-03T10:18:32;6.80;99.90
14357;DHT22;7262;48.764;9.166;2023-04-03T10:21:04;7.00;99.90
14357;DHT22;7262;48.764;9.166;2023-04-03T10:23:36;6.90;99.90
14357;DHT22;7262;48.764;9.166;2023-04-03T10:26:10;7.00;99.90
14357;DHT22;7262;48.764;9.166;2023-04-03T10:28:40;7.00;99.90
14357;DHT22;7262;48.764;9.166;2023-04-03T10:31:13;7.30;99.90
14357;DHT22;7262;48.764;9.166;2023-04-03T10:33:46;7.30;99.90
14357;DHT22;7262;48.764;9.166;2023-04-03T10:36:21;7.30;99.90
14357;DHT22;7262;48.764;9.166;2023-04-03T10:38:54;7.40;99.90
14357;DHT22;7262;48.764;9.166;2023-04-03T10:41:29;7.40;99.90
14357;DHT22;7262;48.764;9.166;2023-04-03T10:44:00;7.10;99.90
14357;DHT22;7262;48.764;9.166;2023-04-03T10:46:33;7.00;99.90
14357;DHT22;7262;48.764;9.166;2023-04-03T10:49:05;7.10;99.90
14357;DHT22;7262;48.764;9.166;2023-04-03T10:51:41;7.20;99.90
14357;DHT22;7262;48.764;9.166;2023-04-03T10:54:12;6.80;99.90
14357;DHT22;7262;48.764;9.166;2023-04-03T10:56:41;7.10;99.90
14357;DHT22;7262;48.764;9.166;2023-04-03T10:59:13;7.20;99.90
14357;DHT22;7262;48.764;9.166;2023-04-03T11:01:44;7.20;99.90
14357;DHT22;7262;48.764;9.166;2023-04-03T11:04:13;7.20;99.90
14357;DHT22;7262;48.764;9.166;2023-04-03T11:06:43;7.10;99.90
14357;DHT22;7262;48.764;9.166;2023-04-03T11:09:16;7.20;99.90
14357;DHT22;7262;48.764;9.166;2023-04-03T11:11:46;7.10;99.90
14357;DHT22;7262;48.764;9.166;2023-04-03T11:14:17;7.00;99.90
14357;DHT22;7262;48.764;9.166;2023-04-03T11:16:48;7.20;99.90
14357;DHT22;7262;48.764;9.166;2023-04-03T11:19:18;7.40;99.90
14357;DHT22;7262;48.764;9.166;2023-04-03T11:21:51;7.50;99.90
14357;DHT22;7262;48.764;9.166;2023-04-03T11:24:22;7.80;99.90
14357;DHT22;7262;48.764;9.166;2023-04-03T11:26:50;8.00;99.90
14357;DHT22;7262;48.764;9.166;2023-04-03T11:29:18;8.00;99.90
14357;DHT22;7262;48.764;9.166;2023-04-03T11:31:54;8.00;99.90
14357;DHT22;7262;48.764;9.166;2023-04-03T11:34:29;7.80;99.90
14357;DHT22;7262;48.764;9.166;2023-04-03T11:37:01;7.50;99.90
14357;DHT22;7262;48.764;9.166;2023-04-03T11:39:31;7.30;99.90
14357;DHT22;7262;48.764;9.166;2023-04-03T11:42:15;7.30;99.90
14357;DHT22;7262;48.764;9.166;2023-04-03T11:44:41;7.30;99.90
14357;DHT22;7262;48.764;9.166;2023-04-03T11:47:10;7.40;99.90
14357;DHT22;7262;48.764;9.166;2023-04-03T11:58:11;7.60;99.90
14357;DHT22;7262;48.764;9.166;2023-04-03T12:00:47;7.70;99.90
14357;DHT22;7262;48.764;9.166;2023-04-03T12:08:59;7.80;99.90
14357;DHT22;7262;48.764;9.166;2023-04-03T12:11:28;7.70;99.90
14357;DHT22;7262;48.764;9.166;2023-04-03T12:14:04;7.60;99.90
14357;DHT22;7262;48.764;9.166;2023-04-03T12:16:32;7.50;99.90
14357;DHT22;7262;48.764;9.166;2023-04-03T12:19:02;7.60;99.90
14357;DHT22;7262;48.764;9.166;2023-04-03T12:24:26;7.30;99.90
14357;DHT22;7262;48.764;9.166;2023-04-03T12:27:01;7.20;99.90
14357;DHT22;7262;48.764;9.166;2023-04-03T12:29:29;7.40;99.90
14357;DHT22;7262;48.764;9.166;2023-04-03T12:32:04;7.20;99.90
14357;DHT22;7262;48.764;9.166;2023-04-03T12:37:34;7.50;99.90
14357;DHT22;7262;48.764;9.166;2023-04-03T12:40:14;7.60;99.90
14357;DHT22;7262;48.764;9.166;2023-04-03T12:42:56;7.60;99.90
14357;DHT22;7262;48.764;9.166;2023-04-03T12:45:29;7.60;99.90
14357;DHT22;7262;48.764;9.166;2023-04-03T12:48:08;7.60;99.90
14357;DHT22;7262;48.764;9.166;2023-04-03T12:50:38;7.80;99.90
14357;DHT22;7262;48.764;9.166;2023-04-03T12:53:10;7.80;99.90
14357;DHT22;7262;48.764;9.166;2023-04-03T12:55:40;7.80;99.90
14357;DHT22;7262;48.764;9.166;2023-04-03T12:58:13;7.90;99.90
14357;DHT22;7262;48.764;9.166;2023-04-03T13:00:40;8.00;99.90
14357;DHT22;7262;48.764;9.166;2023-04-03T13:03:12;8.00;99.90
14357;DHT22;7262;48.764;9.166;2023-04-03T13:05:45;7.80;99.90
14357;DHT22;7262;48.764;9.166;2023-04-03T13:08:12;8.00;99.90
14357;DHT22;7262;48.764;9.166;2023-04-03T13:13:24;8.30;99.90
14357;DHT22;7262;48.764;9.166;2023-04-03T13:15:51;9.30;99.90
14357;DHT22;7262;48.764;9.166;2023-04-03T13:18:23;10.40;99.90
14357;DHT22;7262;48.764;9.166;2023-04-03T13:20:50;11.00;99.90
14357;DHT22;7262;48.764;9.166;2023-04-03T13:23:18;10.90;99.90
14357;DHT22;7262;48.764;9.166;2023-04-03T13:25:46;10.70;99.90
14357;DHT22;7262;48.764;9.166;2023-04-03T13:28:15;11.30;99.90
14357;DHT22;7262;48.764;9.166;2023-04-03T13:30:55;12.20;99.90
14357;DHT22;7262;48.764;9.166;2023-04-03T13:33:26;12.40;99.90
14357;DHT22;7262;48.764;9.166;2023-04-03T13:35:57;12.30;99.90
14357;DHT22;7262;48.764;9.166;2023-04-03T13:38:25;12.00;99.90
14357;DHT22;7262;48.764;9.166;2023-04-03T13:40:53;10.70;99.90
14357;DHT22;7262;48.764;9.166;2023-04-03T13:43:21;10.00;99.90
14357;DHT22;7262;48.764;9.166;2023-04-03T13:45:55;9.90;99.90
14357;DHT22;7262;48.764;9.166;2023-04-03T13:48:23;9.20;99.90
14357;DHT22;7262;48.764;9.166;2023-04-03T13:50:51;9.60;99.90
14357;DHT22;7262;48.764;9.166;2023-04-03T13:53:19;9.70;99.90
14357;DHT22;7262;48.764;9.166;2023-04-03T13:55:57;9.40;99.90
14357;DHT22;7262;48.764;9.166;2023-04-03T13:58:25;9.40;99.90
14357;DHT22;7262;48.764;9.166;2023-04-03T14:00:53;9.70;99.90
14357;DHT22;7262;48.764;9.166;2023-04-03T14:03:22;9.60;99.90
14357;DHT22;7262;48.764;9.166;2023-04-03T14:05:49;9.70;99.90
14357;DHT22;7262;48.764;9.166;2023-04-03T14:08:16;9.20;99.90
14357;DHT22;7262;48.764;9.166;2023-04-03T14:10:43;8.90;99.90
14357;DHT22;7262;48.764;9.166;2023-04-03T14:13:11;8.90;99.90
14357;DHT22;7262;48.764;9.166;2023-04-03T14:15:38;9.00;99.90
14357;DHT22;7262;48.764;9.166;2023-04-03T14:18:06;8.80;99.90
14357;DHT22;7262;48.764;9.166;2023-04-03T14:20:34;8.80;99.90
14357;DHT22;7262;48.764;9.166;2023-04-03T14:23:01;8.70;99.90
14357;DHT22;7262;48.764;9.166;2023-04-03T14:25:27;8.40;99.90
14357;DHT22;7262;48.764;9.166;2023-04-03T14:27:54;8.50;99.90
14357;DHT22;7262;48.764;9.166;2023-04-03T14:30:22;8.50;99.90
14357;DHT22;7262;48.764;9.166;2023-04-03T14:32:49;8.40;99.90
14357;DHT22;7262;48.764;9.166;2023-04-03T14:35:16;8.30;99.90
14357;DHT22;7262;48.764;9.166;2023-04-03T14:37:45;8.10;99.90
14357;DHT22;7262;48.764;9.166;2023-04-03T14:40:13;8.10;99.90
14357;DHT22;7262;48.764;9.166;2023-04-03T14:42:40;8.20;99.90
14357;DHT22;7262;48.764;9.166;2023-04-03T14:45:09;9.70;99.90
14357;DHT22;7262;48.764;9.166;2023-04-03T14:47:37;11.20;99.90
14357;DHT22;7262;48.764;9.166;2023-04-03T14:50:06;11.50;99.90
14357;DHT22;7262;48.764;9.166;2023-04-03T14:52:34;11.70;99.90
14357;DHT22;7262;48.764;9.166;2023-04-03T14:55:04;11.40;99.90
14357;DHT22;7262;48.764;9.166;2023-04-03T14:57:31;11.10;99.90
14357;DHT22;7262;48.764;9.166;2023-04-03T14:59:58;10.40;99.90
14357;DHT22;7262;48.764;9.166;2023-04-03T15:02:27;9.70;99.90
14357;DHT22;7262;48.764;9.166;2023-04-03T15:04:55;9.10;99.90
14357;DHT22;7262;48.764;9.166;2023-04-03T15:07:22;8.90;99.90
14357;DHT22;7262;48.764;9.166;2023-04-03T15:09:50;8.60;99.90
14357;DHT22;7262;48.764;9.166;2023-04-03T15:12:18;8.40;99.90
14357;DHT22;7262;48.764;9.166;2023-04-03T15:14:45;8.70;99.90
14357;DHT22;7262;48.764;9.166;2023-04-03T15:17:13;8.70;99.90
14357;DHT22;7262;48.764;9.166;2023-04-03T15:19:41;8.50;99.90
14357;DHT22;7262;48.764;9.166;2023-04-03T15:22:08;8.50;99.90
14357;DHT22;7262;48.764;9.166;2023-04-03T15:24:40;8.50;99.90
14357;DHT22;7262;48.764;9.166;2023-04-03T15:27:07;8.50;99.90
14357;DHT22;7262;48.764;9.166;2023-04-03T15:29:40;8.60;99.90
14357;DHT22;7262;48.764;9.166;2023-04-03T15:32:09;8.70;99.90
14357;DHT22;7262;48.764;9.166;2023-04-03T15:34:36;8.90;99.90
14357;DHT22;7262;48.764;9.166;2023-04-03T15:37:04;8.50;99.90
14357;DHT22;7262;48.764;9.166;2023-04-03T15:39:31;8.50;99.90
14357;DHT22;7262;48.764;9.166;2023-04-03T15:41:58;8.40;99.90
14357;DHT22;7262;48.764;9.166;2023-04-03T15:44:32;8.30;99.90
14357;DHT22;7262;48.764;9.166;2023-04-03T15:47:00;8.20;99.90
14357;DHT22;7262;48.764;9.166;2023-04-03T15:49:27;8.00;99.90
14357;DHT22;7262;48.764;9.166;2023-04-03T15:51:54;7.80;99.90
14357;DHT22;7262;48.764;9.166;2023-04-03T15:54:21;7.60;99.90
14357;DHT22;7262;48.764;9.166;2023-04-03T15:56:49;7.50;99.90
14357;DHT22;7262;48.764;9.166;2023-04-03T15:59:15;7.50;99.90
14357;DHT22;7262;48.764;9.166;2023-04-03T16:01:42;7.70;99.90
14357;DHT22;7262;48.764;9.166;2023-04-03T16:04:11;8.00;99.90
14357;DHT22;7262;48.764;9.166;2023-04-03T16:06:38;8.10;99.90
14357;DHT22;7262;48.764;9.166;2023-04-03T16:09:05;8.10;99.90
14357;DHT22;7262;48.764;9.166;2023-04-03T16:11:32;8.30;99.90
14357;DHT22;7262;48.764;9.166;2023-04-03T16:14:00;8.50;99.90
14357;DHT22;7262;48.764;9.166;2023-04-03T16:16:29;8.60;99.90
14357;DHT22;7262;48.764;9.166;2023-04-03T16:18:56;8.70;99.90
14357;DHT22;7262;48.764;9.166;2023-04-03T16:21:24;8.70;99.90
14357;DHT22;7262;48.764;9.166;2023-04-03T16:23:51;8.80;99.90
14357;DHT22;7262;48.764;9.166;2023-04-03T16:26:18;8.80;99.90
14357;DHT22;7262;48.764;9.166;2023-04-03T16:28:45;8.60;99.90
14357;DHT22;7262;48.764;9.166;2023-04-03T16:31:12;8.20;99.90
14357;DHT22;7262;48.764;9.166;2023-04-03T16:33:41;8.00;99.90
14357;DHT22;7262;48.764;9.166;2023-04-03T16:36:07;7.80;99.90